Airfield :
LOGIN :

Register | Disclaimer

   EN    FR    IT 

 










Legend :    VFR   Marginal VFR   IFR   Intensive IFR   Very Intensive IFR
Visi :
Ceiling :
>= 8 km
>= 3000ft
5 to 8 km
1000 to 3000 ft
1500m to 5 km
500 to 1000 ft
800 to 1500m
200 to 500 ft
< 800m
< 200 ft
Symbols :   Thunderstorms  Fog  Heavy snow  Heavy precipitations  Wind > 20 kt
SIGMETs :     Misc.  Thunderstorms  Icing  Turbulence  Mountain Waves  Volcanic Ashes






- Airport Elevation : 634 ft
- IATA code : MXX


ESKM - Mora

CURRENT METAR :
  • 251520Z AUTO 04009KT 9999 BKN035/// M01/M05 Q0994

EXPIRED METARs :
  • 251450Z AUTO 03010KT 9999 OVC036/// M00/M05 Q0994
  • 251420Z AUTO 03010KT 9999 BKN026/// OVC034/// M00/M04 Q0994
  • 251350Z AUTO 04010KT 9999 OVC027/// 00/M04 Q0994
  • 251320Z AUTO 05009KT 020V080 9999 BKN025/// OVC030/// 00/M04 Q0994
  • 251250Z AUTO 06009KT 9999 SCT026/// 00/M04 Q0994

TAF N/A



MET'MAP, your aeronautical weather chart ! - Copyright ORBIFLY December 2007 - Disclaimer

ORBIFLY MET'MAP TEAM :

Programming & Development : Alexandra Zaïnal
Concept & original design : Baudouin d'Aumeries
Assistance for programming : Marc-Olivier Méhu
Technical & hardware support : Manuel Goepfert

Contact : metmap@orbifly.com




SOURCES & CREDITS :

   NOAA